createdAt,value
2019-06-08T00:02:46.097Z,22.00
2019-06-08T00:05:34.536Z,22.00
2019-06-08T00:08:24.224Z,21.90
2019-06-08T00:11:12.851Z,21.70
2019-06-08T00:14:01.358Z,21.60
2019-06-08T00:16:50.152Z,21.70
2019-06-08T00:19:38.937Z,21.70
2019-06-08T00:22:27.251Z,21.70
2019-06-08T00:25:15.936Z,21.70
2019-06-08T00:28:05.389Z,21.70
2019-06-08T00:30:53.780Z,21.70
2019-06-08T00:33:42.303Z,21.80
2019-06-08T00:36:30.770Z,21.80
2019-06-08T00:39:19.280Z,21.80
2019-06-08T00:42:07.775Z,21.70
2019-06-08T00:44:56.391Z,21.70
2019-06-08T00:47:48.051Z,21.60
2019-06-08T00:50:35.128Z,21.50
2019-06-08T00:53:23.475Z,21.40
2019-06-08T00:56:12.229Z,21.40
2019-06-08T00:59:00.719Z,21.30
2019-06-08T01:01:50.299Z,21.30
2019-06-08T01:04:38.648Z,21.20
2019-06-08T01:07:27.066Z,21.10
2019-06-08T01:10:16.026Z,21.10
2019-06-08T01:13:04.760Z,21.20
2019-06-08T01:15:55.414Z,21.20
2019-06-08T01:18:43.800Z,21.10
2019-06-08T01:21:32.271Z,21.10
2019-06-08T01:24:21.603Z,21.10
2019-06-08T01:27:10.180Z,21.10
2019-06-08T01:29:59.052Z,21.20
2019-06-08T01:32:47.824Z,21.10
2019-06-08T01:35:36.303Z,21.00
2019-06-08T01:38:25.133Z,20.90
2019-06-08T01:41:13.631Z,21.00
2019-06-08T01:44:02.554Z,21.00
2019-06-08T01:46:50.960Z,21.00
2019-06-08T01:49:39.714Z,21.00
2019-06-08T01:52:28.876Z,21.00
2019-06-08T01:55:17.595Z,21.00
2019-06-08T01:58:06.467Z,21.00
2019-06-08T02:00:54.993Z,21.10
2019-06-08T02:03:43.374Z,21.20
2019-06-08T02:06:32.449Z,21.10
2019-06-08T02:09:21.307Z,21.10
2019-06-08T02:12:10.196Z,21.10
2019-06-08T02:14:58.405Z,21.00
2019-06-08T02:17:46.901Z,21.00
2019-06-08T02:20:35.428Z,20.90
2019-06-08T02:23:23.905Z,20.90
2019-06-08T02:26:12.770Z,20.90
2019-06-08T02:29:01.583Z,21.00
2019-06-08T02:31:50.029Z,21.00
2019-06-08T02:34:38.631Z,20.90
2019-06-08T02:37:28.677Z,20.80
2019-06-08T02:40:17.775Z,20.80
2019-06-08T02:43:06.565Z,20.90
2019-06-08T02:45:55.251Z,21.00
2019-06-08T02:49:02.270Z,21.00
2019-06-08T02:51:34.337Z,20.90
2019-06-08T02:54:23.786Z,20.90
2019-06-08T02:57:14.882Z,20.90
2019-06-08T03:00:04.177Z,20.90
2019-06-08T03:02:54.031Z,20.80
2019-06-08T03:05:43.308Z,20.70
2019-06-08T03:08:38.573Z,20.70
2019-06-08T03:11:27.159Z,20.80
2019-06-08T03:14:18.017Z,20.90
2019-06-08T03:17:06.633Z,21.00
2019-06-08T03:19:55.444Z,21.10
2019-06-08T03:22:44.353Z,21.10
2019-06-08T03:25:41.635Z,21.10
2019-06-08T03:28:23.091Z,21.10
2019-06-08T03:31:11.708Z,21.10
2019-06-08T03:34:00.228Z,21.10
2019-06-08T03:36:55.859Z,21.10
2019-06-08T03:39:39.039Z,21.10
2019-06-08T03:42:27.310Z,21.10
2019-06-08T03:45:15.747Z,21.10
2019-06-08T03:48:04.128Z,21.20
2019-06-08T03:50:52.544Z,21.30
2019-06-08T03:53:42.626Z,21.50
2019-06-08T03:56:31.401Z,21.50
2019-06-08T03:59:19.770Z,21.50
2019-06-08T04:02:08.374Z,21.60
2019-06-08T04:04:56.873Z,21.50
2019-06-08T04:07:46.431Z,21.50
2019-06-08T04:10:37.621Z,21.60
2019-06-08T04:13:26.325Z,21.70
2019-06-08T04:16:14.899Z,21.60
2019-06-08T04:19:03.621Z,21.60
2019-06-08T04:21:52.385Z,21.60
2019-06-08T04:24:42.307Z,21.60
2019-06-08T04:27:31.196Z,21.60
2019-06-08T04:30:19.954Z,21.80
2019-06-08T04:33:08.422Z,21.80
2019-06-08T04:35:57.057Z,21.70
2019-06-08T04:38:46.171Z,21.70
2019-06-08T04:41:35.823Z,21.80
2019-06-08T04:44:24.255Z,21.90
2019-06-08T04:47:15.489Z,21.90
2019-06-08T04:50:21.758Z,21.90
2019-06-08T04:52:55.961Z,21.90
2019-06-08T04:55:45.158Z,22.00
2019-06-08T04:58:34.440Z,22.00
2019-06-08T05:01:24.211Z,22.10
2019-06-08T05:04:12.633Z,22.00
2019-06-08T05:07:01.448Z,22.00
2019-06-08T05:09:50.642Z,22.00
2019-06-08T05:12:39.279Z,22.10
2019-06-08T05:15:28.042Z,22.30
2019-06-08T05:18:16.436Z,22.30
2019-06-08T05:21:05.024Z,22.20
2019-06-08T05:23:58.558Z,22.30
2019-06-08T05:26:45.235Z,22.40
2019-06-08T05:29:33.892Z,22.40
2019-06-08T05:32:22.315Z,22.30
2019-06-08T05:35:11.513Z,22.40
2019-06-08T05:38:00.114Z,22.50
2019-06-08T05:40:49.749Z,22.60
2019-06-08T05:43:39.711Z,22.60
2019-06-08T05:46:28.697Z,22.60
2019-06-08T05:49:19.630Z,22.70
2019-06-08T05:52:08.024Z,22.70
2019-06-08T05:54:56.199Z,22.90
2019-06-08T05:57:46.275Z,23.00
2019-06-08T06:00:35.046Z,23.10
2019-06-08T06:03:23.480Z,23.20
2019-06-08T06:06:12.203Z,23.30
2019-06-08T06:09:03.970Z,23.40
2019-06-08T06:11:52.752Z,23.60
2019-06-08T06:14:41.345Z,23.60
2019-06-08T06:17:30.143Z,23.70
2019-06-08T06:20:18.708Z,23.70
2019-06-08T06:23:07.292Z,23.70
2019-06-08T06:25:55.889Z,23.80
2019-06-08T06:28:45.633Z,23.90
2019-06-08T06:31:34.300Z,24.00
2019-06-08T06:34:22.916Z,23.90
2019-06-08T06:37:12.556Z,24.00
2019-06-08T06:40:00.973Z,24.00
2019-06-08T06:42:50.044Z,24.00
2019-06-08T06:45:39.583Z,24.10
2019-06-08T06:48:28.466Z,24.20
2019-06-08T06:53:22.873Z,24.30
2019-06-08T06:58:21.763Z,24.50
2019-06-08T07:01:22.795Z,24.60
2019-06-08T07:08:06.684Z,24.80
2019-06-08T07:10:55.201Z,24.80
2019-06-08T07:13:44.654Z,24.80
2019-06-08T07:16:33.253Z,24.80
2019-06-08T07:19:21.362Z,24.80
2019-06-08T07:22:10.036Z,24.90
2019-06-08T07:24:59.439Z,25.00
2019-06-08T07:27:48.391Z,25.00
2019-06-08T07:30:37.321Z,25.00
2019-06-08T07:33:26.122Z,25.10
2019-06-08T07:36:14.738Z,25.20
2019-06-08T07:39:07.196Z,25.30
2019-06-08T07:41:56.034Z,25.50
2019-06-08T07:44:46.843Z,25.70
2019-06-08T07:47:35.875Z,25.60
2019-06-08T07:50:24.480Z,25.70
2019-06-08T07:53:12.997Z,25.80
2019-06-08T07:56:01.782Z,25.80
2019-06-08T07:58:51.647Z,25.80
2019-06-08T08:01:40.389Z,25.90
2019-06-08T08:04:29.251Z,25.90
2019-06-08T08:07:17.718Z,25.80
2019-06-08T08:10:08.193Z,25.80
2019-06-08T08:12:56.972Z,25.80
2019-06-08T08:15:46.115Z,25.80
2019-06-08T08:18:34.356Z,25.80
2019-06-08T08:21:26.234Z,25.80
2019-06-08T08:24:12.365Z,25.80
2019-06-08T08:27:03.497Z,25.90
2019-06-08T08:29:51.432Z,25.90
2019-06-08T08:32:40.365Z,26.00
2019-06-08T08:35:29.130Z,26.00
2019-06-08T08:38:17.774Z,25.90
2019-06-08T08:41:08.293Z,25.90
2019-06-08T08:43:58.950Z,25.90
2019-06-08T08:46:48.605Z,26.00
2019-06-08T08:49:38.081Z,26.10
2019-06-08T08:52:34.495Z,26.10
2019-06-08T08:55:20.248Z,26.10
2019-06-08T08:58:08.402Z,26.10
2019-06-08T09:01:00.157Z,26.20
2019-06-08T09:03:48.169Z,26.20
2019-06-08T09:06:38.108Z,26.40
2019-06-08T09:09:28.838Z,26.50
2019-06-08T09:12:20.687Z,26.60
2019-06-08T09:15:09.739Z,26.70
2019-06-08T09:18:02.102Z,26.70
2019-06-08T09:20:49.781Z,26.80
2019-06-08T09:23:38.563Z,26.90
2019-06-08T09:26:31.273Z,26.90
2019-06-08T09:29:21.105Z,26.80
2019-06-08T09:32:14.631Z,26.60
2019-06-08T09:35:04.639Z,26.70
2019-06-08T09:37:53.249Z,26.80
2019-06-08T09:40:42.100Z,26.80
2019-06-08T09:43:30.597Z,26.60
2019-06-08T09:46:22.471Z,26.70
2019-06-08T09:49:11.832Z,26.80
2019-06-08T09:52:03.226Z,27.00
2019-06-08T09:54:54.107Z,27.10
2019-06-08T09:57:43.096Z,27.10
2019-06-08T10:00:31.193Z,27.20
2019-06-08T10:03:19.512Z,27.20
2019-06-08T10:06:11.600Z,27.30
2019-06-08T10:08:58.504Z,27.30
2019-06-08T10:11:47.059Z,27.30
2019-06-08T10:14:37.804Z,27.50
2019-06-08T10:17:27.770Z,27.60
2019-06-08T10:20:58.046Z,27.70
2019-06-08T10:24:00.997Z,27.80
2019-06-08T10:26:51.783Z,27.90
2019-06-08T10:29:43.322Z,28.00
2019-06-08T10:32:43.245Z,28.00
2019-06-08T10:35:33.738Z,27.90
2019-06-08T10:38:23.688Z,27.80
2019-06-08T10:42:19.076Z,28.00
2019-06-08T10:44:46.697Z,28.10
2019-06-08T10:47:47.760Z,28.30
2019-06-08T10:50:36.870Z,28.10
2019-06-08T10:53:25.542Z,28.20
2019-06-08T10:56:14.257Z,28.20
2019-06-08T10:59:05.055Z,28.30
2019-06-08T11:01:52.656Z,28.30
2019-06-08T11:04:43.363Z,28.30
2019-06-08T11:07:31.473Z,28.50
2019-06-08T11:10:20.011Z,28.70
2019-06-08T11:13:14.528Z,28.60
2019-06-08T11:16:00.441Z,28.80
2019-06-08T11:18:50.841Z,28.80
2019-06-08T11:21:38.663Z,28.80
2019-06-08T11:24:29.010Z,28.70
2019-06-08T11:27:18.734Z,28.80
2019-06-08T11:30:20.029Z,28.80
2019-06-08T11:33:02.127Z,28.90
2019-06-08T11:35:50.783Z,28.90
2019-06-08T11:38:39.307Z,28.90
2019-06-08T11:41:29.013Z,29.00
2019-06-08T11:44:19.268Z,28.70
2019-06-08T11:47:11.310Z,28.80
2019-06-08T11:49:57.816Z,28.80
2019-06-08T11:52:49.174Z,28.80
2019-06-08T11:55:38.474Z,28.90
2019-06-08T11:58:30.779Z,28.90
2019-06-08T12:01:19.663Z,29.00
2019-06-08T12:04:08.297Z,28.90
2019-06-08T12:06:58.396Z,29.10
2019-06-08T12:09:49.952Z,29.00
2019-06-08T12:12:38.497Z,28.90
2019-06-08T12:15:28.649Z,29.00
2019-06-08T12:18:18.173Z,29.30
2019-06-08T12:21:08.661Z,29.40
2019-06-08T12:23:56.195Z,29.40
2019-06-08T12:26:47.582Z,29.40
2019-06-08T12:29:35.365Z,29.10
2019-06-08T12:32:23.803Z,29.00
2019-06-08T12:35:13.606Z,29.20
2019-06-08T12:38:02.807Z,29.20
2019-06-08T12:40:51.559Z,29.30
2019-06-08T12:43:40.382Z,29.10
2019-06-08T12:46:28.989Z,29.00
2019-06-08T12:49:18.801Z,29.00
2019-06-08T12:52:08.668Z,29.00
2019-06-08T12:55:06.050Z,29.20
2019-06-08T12:57:51.735Z,29.40
2019-06-08T13:00:39.666Z,29.50
2019-06-08T13:03:29.883Z,29.60
2019-06-08T13:06:20.022Z,29.30
2019-06-08T13:09:11.291Z,29.10
2019-06-08T13:11:59.463Z,29.30
2019-06-08T13:14:50.530Z,29.60
2019-06-08T13:17:41.312Z,30.00
2019-06-08T13:20:29.953Z,30.10
2019-06-08T13:23:21.150Z,30.30
2019-06-08T13:26:10.890Z,30.50
2019-06-08T13:29:00.526Z,30.50
2019-06-08T13:31:49.676Z,30.10
2019-06-08T13:34:38.769Z,30.20
2019-06-08T13:37:27.641Z,30.50
2019-06-08T13:40:20.035Z,30.30
2019-06-08T13:43:08.294Z,29.90
2019-06-08T13:45:58.348Z,29.70
2019-06-08T13:48:48.198Z,29.80
2019-06-08T13:51:38.286Z,29.90
2019-06-08T13:54:30.880Z,29.90
2019-06-08T13:57:20.068Z,29.80
2019-06-08T14:00:08.965Z,29.90
2019-06-08T14:02:57.843Z,30.10
2019-06-08T14:05:47.953Z,30.30
2019-06-08T14:08:38.608Z,30.30
2019-06-08T14:11:28.087Z,30.30
2019-06-08T14:14:17.670Z,30.40
2019-06-08T14:17:08.487Z,30.60
2019-06-08T14:19:59.329Z,30.60
2019-06-08T14:22:50.377Z,30.80
2019-06-08T14:25:49.668Z,30.70
2019-06-08T14:28:28.958Z,30.60
2019-06-08T14:31:19.712Z,30.60
2019-06-08T14:34:10.000Z,30.70
2019-06-08T14:36:59.223Z,30.70
2019-06-08T14:39:48.741Z,30.80
2019-06-08T14:42:38.399Z,31.10
2019-06-08T14:45:30.972Z,31.10
2019-06-08T14:48:18.950Z,31.20
2019-06-08T14:51:08.779Z,31.20
2019-06-08T14:53:58.259Z,31.10
2019-06-08T14:56:47.180Z,30.90
2019-06-08T14:59:35.660Z,30.90
2019-06-08T15:02:25.996Z,30.80
2019-06-08T15:05:14.702Z,30.90
2019-06-08T15:08:03.288Z,30.70
2019-06-08T15:10:52.021Z,30.30
2019-06-08T15:13:40.770Z,29.90
2019-06-08T15:16:32.442Z,29.70
2019-06-08T15:19:20.250Z,29.50
2019-06-08T15:22:11.297Z,29.40
2019-06-08T15:24:59.345Z,29.30
2019-06-08T15:27:48.040Z,29.30
2019-06-08T15:30:38.083Z,29.00
2019-06-08T15:33:32.049Z,29.00
2019-06-08T15:36:20.258Z,28.80
2019-06-08T15:39:07.976Z,28.80
2019-06-08T15:41:59.921Z,28.70
2019-06-08T15:44:47.975Z,28.70
2019-06-08T15:47:40.533Z,28.70
2019-06-08T15:50:26.701Z,28.70
2019-06-08T15:53:15.208Z,28.70
2019-06-08T15:56:03.892Z,28.60
2019-06-08T15:58:54.103Z,28.60
2019-06-08T16:01:42.935Z,28.60
2019-06-08T16:04:31.815Z,28.50
2019-06-08T16:07:20.923Z,28.50
2019-06-08T16:10:09.578Z,28.50
2019-06-08T16:12:58.256Z,28.40
2019-06-08T16:15:46.898Z,28.40
2019-06-08T16:18:36.122Z,28.40
2019-06-08T16:21:25.328Z,28.40
2019-06-08T16:24:16.397Z,28.30
2019-06-08T16:27:05.366Z,28.30
2019-06-08T16:29:54.128Z,28.30
2019-06-08T16:32:42.578Z,28.20
2019-06-08T16:35:35.639Z,28.10
2019-06-08T16:38:24.200Z,27.80
2019-06-08T16:41:13.022Z,27.40
2019-06-08T16:44:01.892Z,27.20
2019-06-08T16:46:50.939Z,26.70
2019-06-08T16:49:39.763Z,26.00
2019-06-08T16:52:28.476Z,25.50
2019-06-08T16:55:16.955Z,25.40
2019-06-08T16:58:05.629Z,25.20
2019-06-08T17:00:54.437Z,25.10
2019-06-08T17:03:43.186Z,25.10
2019-06-08T17:06:31.593Z,25.20
2019-06-08T17:09:20.357Z,25.30
2019-06-08T17:12:09.169Z,25.30
2019-06-08T17:14:57.847Z,25.30
2019-06-08T17:17:46.685Z,25.30
2019-06-08T17:20:36.285Z,25.40
2019-06-08T17:23:24.804Z,25.40
2019-06-08T17:26:13.686Z,25.40
2019-06-08T17:29:02.197Z,25.10
2019-06-08T17:31:50.946Z,25.10
2019-06-08T17:34:40.267Z,25.10
2019-06-08T17:37:29.054Z,25.00
2019-06-08T17:40:17.689Z,25.10
2019-06-08T17:43:06.736Z,25.10
2019-06-08T17:45:55.028Z,25.10
2019-06-08T17:48:43.248Z,25.10
2019-06-08T17:51:32.793Z,25.20
2019-06-08T17:54:21.749Z,25.20
2019-06-08T17:57:10.433Z,25.10
2019-06-08T17:59:58.882Z,25.10
2019-06-08T18:02:48.387Z,25.10
2019-06-08T18:05:41.947Z,25.10
2019-06-08T18:08:28.211Z,25.10
2019-06-08T18:11:17.375Z,25.10
2019-06-08T18:14:13.636Z,24.80
2019-06-08T18:17:00.666Z,24.70
2019-06-08T18:19:52.782Z,24.70
2019-06-08T18:22:44.413Z,24.80
2019-06-08T18:25:34.429Z,25.00
2019-06-08T18:28:24.960Z,25.00
2019-06-08T18:31:15.382Z,25.10
2019-06-08T18:34:08.410Z,25.10
2019-06-08T18:36:59.817Z,25.10
2019-06-08T18:39:53.889Z,25.00
2019-06-08T18:42:48.461Z,24.90
2019-06-08T18:45:42.397Z,24.80
2019-06-08T18:48:30.190Z,24.80
2019-06-08T18:51:19.676Z,24.80
2019-06-08T18:54:14.460Z,24.80
2019-06-08T18:56:58.029Z,24.80
2019-06-08T18:59:50.950Z,24.90
2019-06-08T19:02:39.941Z,25.00
2019-06-08T19:05:27.943Z,25.00
2019-06-08T19:08:17.958Z,25.10
2019-06-08T19:11:08.128Z,25.10
2019-06-08T19:13:58.049Z,25.10
2019-06-08T19:16:54.203Z,25.00
2019-06-08T19:19:41.205Z,25.00
2019-06-08T19:22:29.965Z,25.00
2019-06-08T19:25:17.677Z,25.00
2019-06-08T19:28:07.798Z,25.00
2019-06-08T19:30:58.310Z,24.80
2019-06-08T19:33:51.319Z,24.80
2019-06-08T19:36:39.923Z,24.90
2019-06-08T19:39:28.289Z,24.90
2019-06-08T19:42:17.718Z,24.80
2019-06-08T19:45:08.585Z,24.80
2019-06-08T19:47:57.777Z,24.80
2019-06-08T19:50:47.306Z,24.80
2019-06-08T19:53:42.230Z,24.80
2019-06-08T19:56:28.164Z,24.70
2019-06-08T19:59:18.266Z,24.60
2019-06-08T20:02:08.678Z,24.50
2019-06-08T20:04:57.032Z,24.40
2019-06-08T20:07:45.353Z,24.30
2019-06-08T20:10:33.973Z,24.30
2019-06-08T20:13:22.642Z,24.20
2019-06-08T20:16:11.445Z,24.10
2019-06-08T20:19:00.149Z,23.90
2019-06-08T20:21:51.281Z,23.80
2019-06-08T20:24:38.798Z,23.80
2019-06-08T20:27:27.770Z,23.80
2019-06-08T20:30:17.476Z,23.80
2019-06-08T20:33:08.174Z,23.70
2019-06-08T20:35:58.425Z,23.70
2019-06-08T20:38:47.459Z,23.70
2019-06-08T20:41:37.636Z,23.60
2019-06-08T20:44:30.176Z,23.60
2019-06-08T20:47:20.596Z,23.50
2019-06-08T20:50:08.389Z,23.50
2019-06-08T20:52:57.857Z,23.40
2019-06-08T20:55:49.633Z,23.40
2019-06-08T20:58:38.172Z,23.40
2019-06-08T21:01:27.094Z,23.30
2019-06-08T21:04:18.080Z,23.30
2019-06-08T21:07:07.986Z,23.30
2019-06-08T21:09:58.139Z,23.30
2019-06-08T21:12:49.574Z,23.30
2019-06-08T21:15:38.228Z,23.30
2019-06-08T21:18:28.297Z,23.30
2019-06-08T21:21:17.583Z,23.20
2019-06-08T21:24:09.485Z,23.20
2019-06-08T21:27:02.956Z,23.10
2019-06-08T21:29:59.757Z,23.10
2019-06-08T21:32:42.791Z,23.00
2019-06-08T21:35:31.085Z,22.80
2019-06-08T21:38:23.593Z,22.80
2019-06-08T21:41:09.763Z,22.80
2019-06-08T21:44:01.663Z,22.80
2019-06-08T21:46:51.079Z,22.70
2019-06-08T21:49:38.626Z,22.60
2019-06-08T21:52:28.109Z,22.60
2019-06-08T21:55:17.771Z,22.40
2019-06-08T21:58:08.010Z,22.30
2019-06-08T22:00:59.164Z,22.10
2019-06-08T22:03:47.419Z,22.00
2019-06-08T22:06:37.337Z,22.00
2019-06-08T22:09:28.485Z,21.90
2019-06-08T22:12:17.381Z,21.90
2019-06-08T22:15:07.798Z,21.90
2019-06-08T22:17:59.682Z,21.90
2019-06-08T22:20:47.862Z,21.80
2019-06-08T22:23:36.864Z,21.90
2019-06-08T22:26:27.916Z,21.90
2019-06-08T22:29:18.116Z,21.90
2019-06-08T22:32:09.683Z,21.80
2019-06-08T22:35:00.143Z,21.80
2019-06-08T22:37:51.891Z,21.80
2019-06-08T22:40:47.906Z,21.70
2019-06-08T22:43:37.467Z,21.80
2019-06-08T22:46:26.483Z,21.80
2019-06-08T22:49:18.495Z,21.80
2019-06-08T22:52:08.231Z,21.60
2019-06-08T22:55:02.088Z,21.60
2019-06-08T22:57:47.915Z,21.50
2019-06-08T23:00:51.234Z,21.50
2019-06-08T23:03:27.145Z,21.60
2019-06-08T23:06:17.702Z,21.60
2019-06-08T23:09:08.681Z,21.60
2019-06-08T23:12:01.389Z,21.60
2019-06-08T23:14:47.125Z,21.50
2019-06-08T23:17:38.337Z,21.50
2019-06-08T23:20:27.602Z,21.40
2019-06-08T23:23:17.811Z,21.40
2019-06-08T23:26:10.210Z,21.20
2019-06-08T23:28:56.134Z,21.20
2019-06-08T23:31:45.055Z,21.20
2019-06-08T23:34:33.593Z,21.00
2019-06-08T23:37:22.325Z,21.00
2019-06-08T23:40:11.748Z,21.00
2019-06-08T23:43:01.590Z,21.00
2019-06-08T23:45:51.185Z,20.90
2019-06-08T23:48:39.889Z,21.00
2019-06-08T23:51:28.525Z,21.00
2019-06-08T23:54:18.370Z,21.00
2019-06-08T23:57:09.623Z,21.00
2019-06-08T23:59:59.479Z,21.00
